Time;durP1;ratioP1;P1;durP2;ratioP2;P2;SDS_P1;SDS_P2;PMS_P1;PMS_P2;Temp;Humidity;BMP_temperature;BMP_pressure;BME280_temperature;BME280_humidity;BME280_pressure;Samples;Min_cycle;Max_cycle;Signal;HPM_P1;HPM_P2
2023/07/15 00:00:36;;;;;;;3.58;1.05;;;19.10;99.90;;;;;;5074743;28;20211;-85
2023/07/15 00:03:11;;;;;;;1.48;0.80;;;19.10;99.90;;;;;;5073854;28;20204;-86
2023/07/15 00:05:42;;;;;;;1.00;0.60;;;19.10;99.90;;;;;;5073983;28;20223;-86
2023/07/15 00:08:15;;;;;;;3.47;0.88;;;19.10;99.90;;;;;;5074748;28;20195;-86
2023/07/15 00:10:48;;;;;;;1.10;0.77;;;19.10;99.90;;;;;;5073845;28;20192;-85
2023/07/15 00:13:22;;;;;;;1.83;0.85;;;19.20;99.90;;;;;;5074000;28;20202;-86
2023/07/15 00:15:57;;;;;;;1.08;0.77;;;19.20;99.90;;;;;;5074048;28;20204;-86
2023/07/15 00:18:29;;;;;;;1.73;0.85;;;19.30;99.90;;;;;;5073214;28;20291;-87
2023/07/15 00:21:00;;;;;;;2.22;0.70;;;19.40;99.90;;;;;;5074166;28;20202;-86
2023/07/15 00:23:31;;;;;;;2.53;0.63;;;19.40;99.90;;;;;;5073729;28;20192;-85
2023/07/15 00:26:03;;;;;;;1.30;0.70;;;19.40;99.90;;;;;;5070523;28;20235;-87
2023/07/15 00:28:40;;;;;;;1.35;0.60;;;19.50;99.90;;;;;;5066095;28;20321;-86
2023/07/15 00:31:17;;;;;;;1.25;0.57;;;19.60;99.90;;;;;;5053688;28;20574;-86
2023/07/15 00:33:49;;;;;;;2.92;0.60;;;19.60;99.90;;;;;;5071722;28;20299;-87
2023/07/15 00:36:20;;;;;;;1.17;0.60;;;19.70;99.90;;;;;;5054030;28;20211;-87
2023/07/15 00:38:52;;;;;;;1.63;0.63;;;19.70;99.90;;;;;;5056629;28;20577;-87
2023/07/15 00:41:24;;;;;;;3.03;0.70;;;19.80;99.90;;;;;;5074092;28;20188;-88
2023/07/15 00:43:58;;;;;;;1.95;0.70;;;19.80;99.90;;;;;;5078539;28;20204;-87
2023/07/15 00:46:52;;;;;;;2.40;0.70;;;19.90;99.90;;;;;;5084142;28;20287;-86
2023/07/15 00:49:25;;;;;;;1.23;0.70;;;19.90;99.90;;;;;;5060369;28;20228;-86
2023/07/15 00:52:04;;;;;;;1.05;0.73;;;20.00;99.90;;;;;;5075588;28;20194;-86
2023/07/15 00:54:38;;;;;;;1.48;0.80;;;20.00;99.90;;;;;;5074061;28;20207;-87
2023/07/15 00:57:11;;;;;;;1.83;0.70;;;20.00;99.90;;;;;;5080433;28;20199;-86
2023/07/15 00:59:43;;;;;;;2.50;0.82;;;20.10;99.90;;;;;;5074174;28;20263;-87
2023/07/15 01:02:19;;;;;;;1.98;0.57;;;20.20;99.90;;;;;;5073485;28;20196;-87
2023/07/15 01:04:52;;;;;;;0.73;0.50;;;20.30;99.90;;;;;;5072725;28;20212;-86
2023/07/15 01:07:25;;;;;;;1.75;0.60;;;20.40;99.90;;;;;;5070968;28;20198;-87
2023/07/15 01:09:56;;;;;;;1.13;0.60;;;20.40;99.90;;;;;;5054252;28;20204;-86
2023/07/15 01:12:27;;;;;;;1.48;0.80;;;20.50;99.90;;;;;;5053495;28;20201;-86
2023/07/15 01:15:02;;;;;;;2.92;0.63;;;20.60;99.90;;;;;;5053407;28;20526;-86
2023/07/15 01:17:36;;;;;;;2.58;0.52;;;20.50;99.90;;;;;;5060771;28;20658;-86
2023/07/15 01:20:08;;;;;;;0.80;0.60;;;20.60;99.90;;;;;;5073513;28;20204;-89
2023/07/15 01:22:43;;;;;;;1.38;0.80;;;20.70;99.90;;;;;;5072003;28;20215;-91
2023/07/15 01:25:15;;;;;;;1.52;0.52;;;20.70;99.90;;;;;;5065859;28;20249;-86
2023/07/15 01:27:47;;;;;;;1.08;0.55;;;20.80;99.90;;;;;;5073011;28;20203;-86
2023/07/15 01:30:18;;;;;;;1.85;0.60;;;20.80;99.90;;;;;;5075569;28;20187;-85
2023/07/15 01:32:49;;;;;;;1.67;0.60;;;20.90;99.90;;;;;;5074869;28;20195;-86
2023/07/15 01:35:20;;;;;;;1.60;0.70;;;21.00;99.90;;;;;;5066941;28;20193;-85
2023/07/15 01:37:54;;;;;;;1.23;0.60;;;21.20;99.90;;;;;;5054343;28;20198;-86
2023/07/15 01:40:27;;;;;;;1.60;0.68;;;21.30;99.90;;;;;;5081247;28;20250;-87
2023/07/15 01:42:58;;;;;;;1.35;0.70;;;21.30;99.90;;;;;;5087420;28;20223;-86
2023/07/15 01:45:29;;;;;;;0.50;0.50;;;21.40;99.90;;;;;;5070849;28;20220;-86
2023/07/15 01:48:01;;;;;;;1.30;0.73;;;21.50;99.90;;;;;;5076848;28;20228;-86
2023/07/15 01:50:32;;;;;;;2.83;0.70;;;21.60;99.90;;;;;;5090280;28;20196;-87
2023/07/15 01:53:07;;;;;;;1.10;0.60;;;21.60;99.90;;;;;;5085986;28;20203;-87
2023/07/15 01:55:39;;;;;;;1.00;0.50;;;21.60;99.90;;;;;;5083249;28;20195;-88
2023/07/15 01:58:10;;;;;;;1.25;0.50;;;21.60;99.90;;;;;;5077996;28;20199;-87
2023/07/15 02:00:42;;;;;;;0.95;0.70;;;21.70;99.90;;;;;;5076206;28;20211;-87
2023/07/15 02:03:13;;;;;;;1.00;0.60;;;21.80;99.90;;;;;;5077316;28;20674;-87
2023/07/15 02:05:50;;;;;;;1.95;0.70;;;21.90;99.90;;;;;;5071996;28;20220;-88
2023/07/15 02:08:24;;;;;;;1.40;0.70;;;22.10;99.90;;;;;;5074603;28;20191;-89
2023/07/15 02:10:56;;;;;;;2.25;0.75;;;22.10;99.90;;;;;;5074514;28;20199;-88
2023/07/15 02:13:28;;;;;;;1.27;0.70;;;22.10;99.90;;;;;;5075209;28;20678;-88
2023/07/15 02:15:59;;;;;;;2.03;0.65;;;22.20;99.90;;;;;;5078527;28;20200;-87
2023/07/15 02:18:30;;;;;;;1.55;0.63;;;22.20;99.10;;;;;;5059097;28;20199;-86
2023/07/15 02:21:02;;;;;;;3.92;0.65;;;22.30;99.20;;;;;;5073962;28;20192;-88
2023/07/15 02:23:37;;;;;;;1.00;0.80;;;22.40;95.90;;;;;;5062342;28;20193;-87
2023/07/15 02:26:08;;;;;;;1.13;0.60;;;22.50;94.40;;;;;;5052089;28;20223;-87
2023/07/15 02:28:40;;;;;;;2.05;0.40;;;22.60;93.00;;;;;;5051863;28;20191;-87
2023/07/15 02:31:11;;;;;;;1.23;0.70;;;22.80;92.40;;;;;;5056651;28;20218;-88
2023/07/15 02:33:42;;;;;;;1.30;0.60;;;22.90;90.70;;;;;;5057907;28;20215;-88
2023/07/15 02:36:15;;;;;;;1.17;0.47;;;22.90;90.80;;;;;;5053995;28;20196;-88
2023/07/15 02:38:49;;;;;;;1.27;0.60;;;23.00;90.00;;;;;;5053059;28;20196;-90
2023/07/15 02:41:21;;;;;;;0.73;0.68;;;23.00;89.00;;;;;;5072573;28;20203;-89
2023/07/15 02:43:53;;;;;;;1.17;0.77;;;23.10;87.80;;;;;;5072802;28;20200;-87
2023/07/15 02:46:24;;;;;;;1.38;0.80;;;23.20;89.20;;;;;;5053920;28;20223;-87
2023/07/15 02:48:55;;;;;;;1.00;0.70;;;23.00;86.50;;;;;;5074035;28;20285;-88
2023/07/15 02:51:26;;;;;;;1.67;0.90;;;23.00;87.50;;;;;;5075749;28;20204;-88
2023/07/15 02:54:03;;;;;;;1.60;0.90;;;23.10;86.00;;;;;;5075774;28;20571;-89
2023/07/15 02:56:34;;;;;;;2.08;1.10;;;23.10;85.30;;;;;;5076743;28;20195;-88
2023/07/15 02:59:07;;;;;;;1.77;1.20;;;23.20;86.90;;;;;;5076358;28;20184;-88
2023/07/15 03:01:38;;;;;;;1.60;0.90;;;23.30;86.20;;;;;;5069715;28;20204;-87
2023/07/15 03:04:10;;;;;;;1.48;1.00;;;23.40;87.40;;;;;;5075400;28;20204;-86
2023/07/15 03:06:42;;;;;;;1.33;0.90;;;23.40;86.00;;;;;;5076114;28;20688;-89
2023/07/15 03:09:16;;;;;;;3.47;1.48;;;23.50;84.50;;;;;;5076040;28;20195;-88
2023/07/15 03:11:47;;;;;;;10.45;4.30;;;23.40;77.00;;;;;;5076659;28;20204;-88
2023/07/15 03:14:19;;;;;;;6.53;3.78;;;23.40;71.90;;;;;;5066821;28;20212;-89
2023/07/15 03:16:50;;;;;;;2.85;1.70;;;23.50;70.20;;;;;;5060520;28;20682;-91
2023/07/15 03:19:21;;;;;;;6.13;2.92;;;23.50;67.60;;;;;;5074559;28;20202;-91
2023/07/15 03:21:52;;;;;;;2.83;1.02;;;23.50;67.70;;;;;;5075909;28;20204;-89
2023/07/15 03:24:27;;;;;;;1.65;0.70;;;23.50;68.10;;;;;;5076192;28;20643;-88
2023/07/15 03:26:58;;;;;;;1.27;0.73;;;23.50;70.40;;;;;;5072139;28;20220;-88
2023/07/15 03:29:30;;;;;;;2.20;0.73;;;23.60;70.00;;;;;;5071927;28;20192;-87
2023/07/15 03:32:01;;;;;;;0.82;0.60;;;23.60;68.60;;;;;;5080342;28;20208;-88
2023/07/15 03:34:32;;;;;;;1.38;0.70;;;23.70;67.50;;;;;;5057604;28;20211;-87
2023/07/15 03:37:04;;;;;;;3.30;0.88;;;23.80;67.40;;;;;;5061404;28;20578;-85
2023/07/15 03:39:37;;;;;;;1.20;0.57;;;23.80;64.50;;;;;;5064367;28;20626;-86
2023/07/15 03:42:08;;;;;;;2.80;0.80;;;23.80;66.30;;;;;;5074512;28;20303;-86
2023/07/15 03:44:40;;;;;;;1.20;0.60;;;23.80;63.50;;;;;;5074161;28;20195;-86
2023/07/15 03:47:11;;;;;;;6.10;0.90;;;23.70;64.00;;;;;;5065160;28;20208;-87
2023/07/15 03:49:43;;;;;;;4.07;1.10;;;23.80;63.50;;;;;;5054155;28;20217;-87
2023/07/15 03:52:14;;;;;;;1.45;0.68;;;23.90;62.00;;;;;;5050055;28;20260;-88
2023/07/15 03:54:50;;;;;;;2.60;0.85;;;23.80;62.50;;;;;;5034597;28;20676;-87
2023/07/15 03:57:21;;;;;;;4.97;0.75;;;23.80;61.30;;;;;;5034233;28;20201;-91
2023/07/15 03:59:55;;;;;;;0.85;0.55;;;23.70;60.30;;;;;;5036351;28;20198;-86
2023/07/15 04:02:29;;;;;;;1.98;0.80;;;23.70;60.70;;;;;;5054373;28;20206;-85
2023/07/15 04:05:01;;;;;;;3.85;0.70;;;23.70;61.70;;;;;;5038834;28;20242;-86
2023/07/15 04:07:32;;;;;;;1.25;0.90;;;23.70;61.90;;;;;;5055427;28;20764;-89
2023/07/15 04:10:07;;;;;;;0.90;0.60;;;23.70;60.30;;;;;;5054929;28;20613;-87
2023/07/15 04:12:38;;;;;;;2.28;0.60;;;23.70;60.10;;;;;;5054266;28;20196;-89
2023/07/15 04:15:11;;;;;;;1.83;0.65;;;23.70;59.30;;;;;;5055096;28;20196;-86
2023/07/15 04:17:42;;;;;;;1.23;0.70;;;23.60;59.90;;;;;;5049804;28;20228;-87
2023/07/15 04:20:15;;;;;;;1.02;0.57;;;23.60;59.30;;;;;;5055658;28;20248;-89
2023/07/15 04:22:46;;;;;;;1.35;0.50;;;23.70;59.20;;;;;;5054260;28;20718;-85
2023/07/15 04:25:20;;;;;;;2.03;0.63;;;23.70;59.50;;;;;;5054147;28;20280;-87
2023/07/15 04:27:52;;;;;;;1.38;0.70;;;23.60;59.70;;;;;;5053627;28;20540;-86
2023/07/15 04:30:25;;;;;;;1.83;0.85;;;23.60;59.60;;;;;;5042192;28;20782;-87
2023/07/15 04:32:57;;;;;;;1.15;0.60;;;23.60;59.70;;;;;;5045842;28;20216;-88
2023/07/15 04:35:28;;;;;;;1.17;0.70;;;23.60;60.00;;;;;;5039249;28;20205;-87
2023/07/15 04:37:59;;;;;;;1.58;0.80;;;23.60;60.50;;;;;;5053848;28;20189;-88
2023/07/15 04:40:34;;;;;;;1.75;0.60;;;23.70;60.30;;;;;;5053595;28;20189;-88
2023/07/15 04:43:05;;;;;;;1.25;0.70;;;23.70;61.10;;;;;;5044168;28;20230;-86
2023/07/15 04:45:36;;;;;;;1.33;0.70;;;23.80;59.80;;;;;;5052897;28;20193;-86
2023/07/15 04:48:08;;;;;;;0.75;0.43;;;23.70;59.70;;;;;;5059283;28;20232;-85
2023/07/15 04:50:40;;;;;;;2.42;0.70;;;23.70;60.70;;;;;;5073105;28;20219;-87
2023/07/15 04:53:11;;;;;;;1.33;0.73;;;23.60;59.70;;;;;;5073001;28;20199;-87
2023/07/15 04:55:46;;;;;;;3.08;0.90;;;23.60;60.30;;;;;;5062498;28;20278;-86
2023/07/15 04:58:18;;;;;;;1.45;0.50;;;23.60;59.90;;;;;;5055761;28;20197;-87
2023/07/15 05:00:49;;;;;;;4.80;0.90;;;23.60;59.80;;;;;;5089927;28;20203;-86
2023/07/15 05:03:20;;;;;;;1.88;0.50;;;23.50;60.50;;;;;;5061735;28;20193;-85
2023/07/15 05:05:51;;;;;;;3.13;0.90;;;23.50;61.20;;;;;;5071161;28;20258;-86
2023/07/15 05:08:23;;;;;;;2.17;0.95;;;23.60;60.50;;;;;;5073002;28;20191;-86
2023/07/15 05:10:57;;;;;;;1.05;0.70;;;23.50;60.40;;;;;;5071948;28;20185;-85
2023/07/15 05:13:31;;;;;;;1.38;0.70;;;23.50;60.40;;;;;;5072605;28;20199;-85
2023/07/15 05:16:03;;;;;;;1.88;0.82;;;23.40;60.80;;;;;;5072829;28;20203;-85
2023/07/15 05:18:34;;;;;;;0.90;0.73;;;23.30;60.90;;;;;;5069408;28;20196;-85
2023/07/15 05:21:05;;;;;;;3.42;0.70;;;23.30;61.50;;;;;;5072461;28;20203;-86
2023/07/15 05:23:37;;;;;;;1.55;0.70;;;23.30;61.00;;;;;;5071825;28;20262;-85
2023/07/15 05:26:10;;;;;;;2.58;0.80;;;23.40;60.80;;;;;;5072306;28;20208;-87
2023/07/15 05:28:41;;;;;;;2.33;0.77;;;23.30;61.00;;;;;;5072763;28;20226;-87
2023/07/15 05:31:12;;;;;;;1.10;0.60;;;23.30;61.20;;;;;;5071979;28;20203;-87
2023/07/15 05:33:44;;;;;;;0.85;0.60;;;23.30;61.60;;;;;;5067538;28;20200;-87
2023/07/15 05:36:16;;;;;;;1.13;0.63;;;23.30;62.20;;;;;;5073063;28;20216;-87
2023/07/15 05:38:48;;;;;;;0.90;0.60;;;23.30;61.70;;;;;;5073088;28;20302;-87
2023/07/15 05:41:21;;;;;;;3.53;0.70;;;23.20;61.20;;;;;;5085547;28;20188;-87
2023/07/15 05:43:54;;;;;;;0.90;0.77;;;23.20;62.10;;;;;;5073901;28;20561;-87
2023/07/15 05:46:25;;;;;;;1.10;0.70;;;23.20;62.10;;;;;;5055730;28;20222;-87
2023/07/15 05:48:56;;;;;;;1.42;0.70;;;23.20;62.20;;;;;;5071857;28;20239;-86
2023/07/15 05:51:27;;;;;;;2.75;0.80;;;23.20;62.40;;;;;;5072215;28;20188;-87
2023/07/15 05:54:01;;;;;;;1.42;0.90;;;23.10;62.40;;;;;;5072834;28;20492;-87
2023/07/15 05:56:35;;;;;;;3.47;1.10;;;23.10;62.50;;;;;;5072764;28;20198;-87
2023/07/15 05:59:06;;;;;;;1.35;0.85;;;23.10;62.90;;;;;;5063405;28;20196;-87
2023/07/15 06:01:38;;;;;;;3.50;0.98;;;23.00;63.30;;;;;;5057675;28;20211;-87
2023/07/15 06:04:12;;;;;;;2.50;0.80;;;23.10;63.30;;;;;;5075812;28;20196;-82
2023/07/15 06:06:43;;;;;;;0.85;0.80;;;23.10;63.20;;;;;;5064959;28;20218;-87
2023/07/15 06:09:14;;;;;;;1.85;0.85;;;23.10;63.00;;;;;;5068171;28;20205;-87
2023/07/15 06:11:50;;;;;;;1.35;1.10;;;23.10;62.40;;;;;;5076702;28;20662;-87
2023/07/15 06:14:21;;;;;;;1.58;0.82;;;23.10;63.20;;;;;;5051074;28;20215;-87
2023/07/15 06:16:54;;;;;;;2.08;0.90;;;23.10;63.20;;;;;;5052335;28;20204;-85
2023/07/15 06:19:25;;;;;;;1.00;0.70;;;23.20;63.30;;;;;;5070665;28;20283;-85
2023/07/15 06:21:56;;;;;;;1.63;0.88;;;23.10;63.20;;;;;;5072156;28;20194;-86
2023/07/15 06:24:27;;;;;;;1.92;1.70;;;23.20;63.30;;;;;;5052111;28;20204;-85
2023/07/15 06:27:00;;;;;;;1.85;1.20;;;23.20;63.60;;;;;;5052119;28;20208;-86
2023/07/15 06:29:33;;;;;;;0.85;0.65;;;23.20;64.30;;;;;;5062511;28;20227;-86
2023/07/15 06:32:04;;;;;;;9.60;7.25;;;23.10;63.80;;;;;;5070376;28;20199;-86
2023/07/15 06:34:35;;;;;;;1.60;0.93;;;23.00;64.50;;;;;;5068264;28;20566;-86
2023/07/15 06:37:08;;;;;;;11.40;9.27;;;22.90;64.60;;;;;;5072569;28;20195;-87
2023/07/15 06:39:39;;;;;;;7.78;1.58;;;22.90;65.30;;;;;;5072061;28;20649;-87
2023/07/15 06:42:13;;;;;;;1.90;1.30;;;22.80;65.10;;;;;;5071621;28;20650;-87
2023/07/15 06:44:44;;;;;;;2.05;1.00;;;22.70;65.30;;;;;;5055194;28;20207;-86
2023/07/15 06:47:15;;;;;;;3.30;0.80;;;22.60;64.90;;;;;;5070782;28;20710;-86
2023/07/15 06:49:47;;;;;;;3.88;1.20;;;22.60;65.50;;;;;;5070153;28;20192;-86
2023/07/15 06:52:19;;;;;;;1.98;1.38;;;22.60;65.90;;;;;;5072535;28;20200;-89
2023/07/15 06:54:50;;;;;;;1.88;0.73;;;22.50;66.10;;;;;;5071157;28;20184;-87
2023/07/15 06:57:28;;;;;;;2.80;1.90;;;22.40;66.10;;;;;;5070417;28;20540;-86
2023/07/15 06:59:59;;;;;;;2.38;1.50;;;22.30;67.30;;;;;;5052253;28;20184;-86
2023/07/15 07:02:31;;;;;;;1.63;1.50;;;22.30;67.20;;;;;;5067792;28;20201;-88
2023/07/15 07:05:02;;;;;;;1.60;1.50;;;22.10;67.80;;;;;;5074441;28;20195;-87
2023/07/15 07:07:33;;;;;;;1.85;1.10;;;22.00;67.60;;;;;;5076137;28;20303;-87
2023/07/15 07:10:05;;;;;;;1.55;1.10;;;22.00;67.90;;;;;;5081188;28;20191;-87
2023/07/15 07:12:40;;;;;;;2.33;1.60;;;22.00;68.40;;;;;;5074118;28;20195;-87
2023/07/15 07:15:13;;;;;;;1.58;1.15;;;21.90;68.40;;;;;;5082695;28;20176;-87
2023/07/15 07:17:45;;;;;;;1.55;1.42;;;21.90;68.60;;;;;;5089176;28;20198;-88
2023/07/15 07:20:16;;;;;;;1.20;1.10;;;21.80;69.30;;;;;;5094347;28;20188;-87
2023/07/15 07:22:47;;;;;;;1.02;0.95;;;21.70;69.60;;;;;;5093790;28;20211;-87
2023/07/15 07:25:18;;;;;;;3.22;1.00;;;21.70;69.50;;;;;;5095406;28;20182;-87
2023/07/15 07:27:56;;;;;;;4.20;1.17;;;21.60;69.80;;;;;;5075217;28;20232;-90
2023/07/15 07:30:27;;;;;;;1.63;0.90;;;21.70;69.40;;;;;;5091866;28;20216;-87
2023/07/15 07:32:58;;;;;;;3.42;1.85;;;21.60;69.90;;;;;;5059376;28;20562;-88
2023/07/15 07:35:30;;;;;;;1.40;1.00;;;21.50;70.00;;;;;;5062441;28;20202;-88
2023/07/15 07:38:04;;;;;;;1.80;1.45;;;21.60;69.70;;;;;;5079455;28;20200;-89
2023/07/15 07:40:38;;;;;;;3.30;1.80;;;21.60;69.90;;;;;;5078724;28;20200;-88
2023/07/15 07:43:11;;;;;;;2.25;2.00;;;21.50;70.40;;;;;;5083438;28;20210;-89
2023/07/15 07:45:43;;;;;;;5.45;4.15;;;21.40;71.70;;;;;;5090586;28;20286;-87
2023/07/15 07:48:14;;;;;;;4.95;4.05;;;21.40;73.30;;;;;;5075477;28;20234;-87
2023/07/15 07:50:46;;;;;;;4.35;3.55;;;21.30;74.50;;;;;;5076481;28;20295;-87
2023/07/15 07:53:17;;;;;;;3.88;2.90;;;21.20;75.20;;;;;;5076547;28;20361;-88
2023/07/15 07:55:48;;;;;;;3.13;2.10;;;21.10;75.80;;;;;;5077149;28;20196;-87
2023/07/15 07:58:22;;;;;;;3.88;2.33;;;21.10;76.30;;;;;;5069679;28;20193;-86
2023/07/15 08:00:54;;;;;;;2.55;2.20;;;20.90;76.40;;;;;;5063005;28;20227;-86
2023/07/15 08:03:25;;;;;;;3.78;2.95;;;20.90;76.90;;;;;;5075632;28;20196;-87
2023/07/15 08:05:57;;;;;;;4.90;2.80;;;20.90;77.40;;;;;;5077082;28;20569;-87
2023/07/15 08:08:28;;;;;;;2.55;2.05;;;20.80;78.00;;;;;;5076282;28;20228;-85
2023/07/15 08:10:59;;;;;;;3.28;1.83;;;20.80;78.50;;;;;;5075224;28;20200;-86
2023/07/15 08:13:32;;;;;;;3.03;1.85;;;20.80;79.00;;;;;;5070216;28;20196;-87
2023/07/15 08:16:04;;;;;;;2.95;1.90;;;20.70;79.10;;;;;;5074947;28;20242;-87
2023/07/15 08:18:36;;;;;;;1.75;1.48;;;20.70;79.30;;;;;;5073039;28;20314;-87
2023/07/15 08:21:11;;;;;;;1.98;1.55;;;20.60;78.90;;;;;;5075662;28;20565;-87
2023/07/15 08:23:45;;;;;;;2.05;1.42;;;20.60;79.90;;;;;;5076633;28;20225;-87
2023/07/15 08:26:16;;;;;;;3.05;2.13;;;20.60;79.90;;;;;;5075519;28;20278;-86
2023/07/15 08:28:49;;;;;;;3.03;2.45;;;20.50;80.40;;;;;;5056261;28;20231;-87
2023/07/15 08:31:23;;;;;;;3.20;2.40;;;20.50;81.10;;;;;;5068522;28;20192;-89
2023/07/15 08:33:54;;;;;;;3.72;2.53;;;20.50;81.60;;;;;;5072304;28;20200;-89
2023/07/15 08:36:25;;;;;;;3.05;2.00;;;20.50;81.50;;;;;;5074368;28;20188;-87
2023/07/15 08:38:57;;;;;;;4.43;1.90;;;20.40;81.10;;;;;;5077006;28;20540;-86
2023/07/15 08:41:28;;;;;;;3.50;1.92;;;20.40;81.80;;;;;;5073985;28;20207;-87
2023/07/15 08:44:02;;;;;;;3.47;2.05;;;20.40;82.90;;;;;;5072117;28;20297;-86
2023/07/15 08:46:34;;;;;;;2.17;1.70;;;20.30;83.00;;;;;;5071397;28;20196;-85
2023/07/15 08:49:05;;;;;;;5.25;2.10;;;20.40;82.60;;;;;;5074433;28;20236;-85
2023/07/15 08:51:38;;;;;;;2.10;1.90;;;20.30;83.10;;;;;;5068209;28;20210;-86
2023/07/15 08:54:09;;;;;;;2.45;1.98;;;20.30;82.20;;;;;;5070932;28;20203;-86
2023/07/15 08:56:42;;;;;;;2.67;2.38;;;20.30;82.60;;;;;;5074441;28;20196;-86
2023/07/15 08:59:18;;;;;;;2.38;2.03;;;20.30;82.50;;;;;;5073163;28;20206;-87
2023/07/15 09:01:50;;;;;;;3.13;2.30;;;20.30;81.70;;;;;;5072057;28;20235;-87
2023/07/15 09:04:21;;;;;;;3.40;2.30;;;20.20;82.10;;;;;;5064056;28;20558;-86
2023/07/15 09:06:54;;;;;;;3.80;2.45;;;20.20;82.70;;;;;;5053423;28;20203;-86
2023/07/15 09:09:34;;;;;;;3.90;2.17;;;20.20;83.00;;;;;;5054736;28;20201;-85
2023/07/15 09:12:09;;;;;;;5.47;2.20;;;20.10;82.70;;;;;;5053028;28;20202;-86
2023/07/15 09:14:46;;;;;;;4.47;2.72;;;20.10;83.20;;;;;;5065793;28;20263;-83
2023/07/15 09:17:23;;;;;;;3.10;2.30;;;20.10;84.70;;;;;;5073063;28;20607;-86
2023/07/15 09:19:55;;;;;;;3.60;2.65;;;20.10;85.40;;;;;;5065133;28;20196;-84
2023/07/15 09:22:28;;;;;;;3.92;2.70;;;20.00;86.30;;;;;;5072960;28;20184;-85
2023/07/15 09:25:06;;;;;;;3.85;2.97;;;20.00;87.40;;;;;;5072690;28;20206;-86
2023/07/15 09:27:37;;;;;;;4.07;3.33;;;20.00;85.60;;;;;;5060151;28;20219;-85
2023/07/15 09:30:13;;;;;;;4.20;3.42;;;20.00;83.20;;;;;;5053038;28;20220;-82
2023/07/15 09:32:44;;;;;;;3.88;2.90;;;20.00;82.60;;;;;;5064102;28;20200;-84
2023/07/15 09:35:17;;;;;;;4.43;3.25;;;20.00;82.20;;;;;;5047428;28;20245;-85
2023/07/15 09:37:51;;;;;;;4.93;3.10;;;19.90;83.20;;;;;;5073821;28;20584;-85
2023/07/15 09:40:23;;;;;;;4.70;3.60;;;19.90;82.80;;;;;;5072789;28;20560;-84
2023/07/15 09:42:55;;;;;;;5.80;4.10;;;19.90;82.90;;;;;;5073441;28;20258;-85
2023/07/15 09:45:45;;;;;;;6.15;3.20;;;19.80;83.20;;;;;;5068567;28;20643;-86
2023/07/15 09:48:18;;;;;;;5.22;4.00;;;19.80;84.70;;;;;;5090297;28;20283;-86
2023/07/15 09:50:53;;;;;;;6.60;4.47;;;19.80;87.00;;;;;;5077665;28;20206;-86
2023/07/15 09:53:25;;;;;;;5.07;3.47;;;19.80;88.80;;;;;;5073478;28;20194;-86
2023/07/15 09:55:56;;;;;;;4.13;3.00;;;19.70;89.70;;;;;;5075011;28;20184;-85
2023/07/15 09:58:31;;;;;;;4.30;2.90;;;19.70;89.90;;;;;;5077633;28;20206;-85
2023/07/15 10:01:10;;;;;;;6.82;3.67;;;19.60;90.80;;;;;;5073004;28;20213;-86
2023/07/15 10:03:48;;;;;;;7.55;6.60;;;19.60;91.40;;;;;;5055468;28;20572;-84
2023/07/15 10:06:22;;;;;;;6.22;5.07;;;19.50;91.30;;;;;;5052558;28;20192;-85
2023/07/15 10:08:53;;;;;;;6.50;4.50;;;19.50;89.00;;;;;;5052285;28;20209;-85
2023/07/15 10:11:25;;;;;;;6.80;4.68;;;19.40;89.10;;;;;;5055556;28;20366;-85
2023/07/15 10:13:56;;;;;;;7.32;4.70;;;19.40;89.40;;;;;;5070472;28;20279;-85
2023/07/15 10:16:29;;;;;;;7.50;5.65;;;19.40;89.60;;;;;;5068582;28;20196;-84
2023/07/15 10:19:02;;;;;;;9.32;6.97;;;19.40;90.10;;;;;;5064034;28;20204;-86
2023/07/15 10:21:35;;;;;;;8.77;6.75;;;19.40;90.40;;;;;;5075459;28;20207;-85
2023/07/15 10:24:19;;;;;;;8.48;6.32;;;19.40;91.30;;;;;;5073619;28;20200;-85
2023/07/15 10:26:53;;;;;;;8.65;4.85;;;19.40;91.90;;;;;;5072554;28;20206;-85
2023/07/15 10:29:27;;;;;;;7.80;4.82;;;19.40;92.20;;;;;;5053306;28;20679;-86
2023/07/15 10:32:14;;;;;;;6.95;4.90;;;19.40;92.10;;;;;;5062549;28;20274;-85
2023/07/15 10:34:52;;;;;;;6.63;4.95;;;19.40;92.70;;;;;;5070168;28;20192;-85
2023/07/15 10:37:24;;;;;;;7.85;5.50;;;19.40;92.50;;;;;;5072933;28;20199;-88
2023/07/15 10:39:56;;;;;;;13.55;9.43;;;19.40;91.80;;;;;;5072525;28;20279;-85
2023/07/15 10:42:28;;;;;;;21.38;13.73;;;19.30;91.30;;;;;;5072898;28;20203;-86
2023/07/15 10:44:59;;;;;;;16.20;10.50;;;19.40;91.50;;;;;;5070335;28;20205;-86
2023/07/15 10:47:37;;;;;;;14.70;10.40;;;19.40;92.50;;;;;;5071383;28;20226;-85
2023/07/15 10:50:10;;;;;;;14.88;11.32;;;19.40;93.00;;;;;;5074541;28;20205;-86
2023/07/15 10:52:41;;;;;;;14.32;9.85;;;19.40;92.90;;;;;;5051439;28;20619;-85
2023/07/15 10:55:12;;;;;;;10.82;7.40;;;19.40;92.80;;;;;;5065477;28;20208;-86
2023/07/15 10:57:43;;;;;;;7.13;5.25;;;19.40;91.30;;;;;;5070991;28;20566;-85
2023/07/15 11:00:15;;;;;;;8.52;6.22;;;19.40;91.10;;;;;;5070808;28;20202;-85
2023/07/15 11:02:48;;;;;;;8.43;6.03;;;19.40;90.90;;;;;;5069416;28;20211;-85
2023/07/15 11:05:21;;;;;;;8.57;5.97;;;19.40;90.80;;;;;;5070707;28;20206;-86
2023/07/15 11:07:52;;;;;;;11.43;8.45;;;19.40;90.50;;;;;;5070901;28;20215;-85
2023/07/15 11:10:33;;;;;;;10.88;9.25;;;19.40;90.60;;;;;;5074928;28;20184;-86
2023/07/15 11:13:16;;;;;;;9.77;6.95;;;19.40;90.60;;;;;;5074907;28;20199;-86
2023/07/15 11:15:49;;;;;;;9.98;5.80;;;19.40;90.60;;;;;;5074138;28;20195;-84
2023/07/15 11:18:23;;;;;;;7.75;5.68;;;19.40;90.60;;;;;;5075022;28;20659;-84
2023/07/15 11:20:56;;;;;;;7.00;6.10;;;19.50;90.10;;;;;;5075285;28;20192;-87
2023/07/15 11:23:29;;;;;;;6.60;5.15;;;19.40;90.20;;;;;;5075075;28;20210;-85
2023/07/15 11:26:12;;;;;;;8.95;6.07;;;19.50;89.70;;;;;;5074783;28;20200;-85
2023/07/15 11:28:53;;;;;;;8.15;5.10;;;19.50;89.80;;;;;;5083273;28;20227;-86
2023/07/15 11:31:25;;;;;;;5.60;4.38;;;19.50;90.10;;;;;;5084780;28;20279;-84
2023/07/15 11:34:02;;;;;;;6.15;4.57;;;19.50;89.50;;;;;;5071996;28;20239;-85
2023/07/15 11:36:33;;;;;;;5.78;4.72;;;19.50;90.50;;;;;;5070386;28;20700;-85
2023/07/15 11:39:08;;;;;;;7.47;5.45;;;19.50;91.00;;;;;;5074714;28;20200;-87
2023/07/15 11:41:39;;;;;;;4.57;3.90;;;19.50;91.40;;;;;;5074620;28;20225;-87
2023/07/15 11:44:14;;;;;;;4.35;3.38;;;19.50;90.50;;;;;;5075412;28;20218;-87
2023/07/15 11:46:48;;;;;;;5.03;3.47;;;19.50;90.00;;;;;;5077087;28;20206;-88
2023/07/15 11:49:27;;;;;;;4.55;3.53;;;19.40;90.00;;;;;;5085768;28;20239;-88
2023/07/15 11:51:59;;;;;;;3.25;2.35;;;19.40;90.10;;;;;;5073468;28;20268;-89
2023/07/15 11:54:34;;;;;;;4.55;1.98;;;19.40;89.80;;;;;;5079942;28;20283;-88
2023/07/15 11:57:06;;;;;;;6.18;2.50;;;19.30;88.90;;;;;;5081857;28;20199;-89
2023/07/15 11:59:39;;;;;;;2.65;1.60;;;19.30;89.70;;;;;;5066286;28;20238;-88
2023/07/15 12:02:20;;;;;;;3.05;2.35;;;19.30;89.20;;;;;;5074321;28;20655;-86
2023/07/15 12:05:07;;;;;;;5.22;2.10;;;19.30;89.10;;;;;;5078618;28;20269;-88
2023/07/15 12:07:39;;;;;;;2.95;1.77;;;19.30;88.90;;;;;;5087124;28;20195;-85
2023/07/15 12:10:13;;;;;;;2.08;1.42;;;19.30;88.90;;;;;;5078102;28;20213;-87
2023/07/15 12:12:45;;;;;;;3.08;1.27;;;19.30;88.80;;;;;;5077622;28;20204;-88
2023/07/15 12:15:19;;;;;;;4.30;1.80;;;19.30;88.20;;;;;;5078690;28;20196;-89
2023/07/15 12:17:51;;;;;;;2.10;1.73;;;19.30;88.60;;;;;;5077196;28;20250;-88
2023/07/15 12:20:27;;;;;;;2.60;1.42;;;19.30;87.30;;;;;;5055732;28;20212;-88
2023/07/15 12:22:59;;;;;;;2.65;1.20;;;19.30;87.30;;;;;;5041101;28;20295;-88
2023/07/15 12:25:32;;;;;;;2.17;1.40;;;19.20;87.20;;;;;;5056495;28;20196;-87
2023/07/15 12:28:03;;;;;;;4.57;1.50;;;19.20;87.80;;;;;;5059384;28;20200;-88
2023/07/15 12:30:35;;;;;;;4.03;1.40;;;19.30;87.40;;;;;;5064771;28;20220;-87
2023/07/15 12:33:08;;;;;;;1.52;1.40;;;19.40;87.70;;;;;;5079228;28;20275;-88
2023/07/15 12:35:42;;;;;;;1.33;1.10;;;19.30;87.00;;;;;;5059297;28;20192;-87
2023/07/15 12:38:13;;;;;;;1.63;1.30;;;19.30;87.00;;;;;;5092910;28;20270;-82
2023/07/15 12:40:45;;;;;;;1.67;1.13;;;19.30;86.60;;;;;;5085467;28;20191;-84
2023/07/15 12:43:17;;;;;;;2.63;1.90;;;19.30;86.30;;;;;;5094188;28;20199;-85
2023/07/15 12:45:50;;;;;;;1.52;1.17;;;19.30;86.60;;;;;;5095135;28;20224;-86
2023/07/15 12:48:22;;;;;;;2.20;1.10;;;19.30;86.90;;;;;;5095923;28;20231;-86
2023/07/15 12:50:57;;;;;;;1.20;1.10;;;19.20;86.60;;;;;;5095067;28;20255;-87
2023/07/15 12:53:30;;;;;;;2.55;1.15;;;19.20;86.70;;;;;;5096280;28;20247;-87
2023/07/15 12:56:01;;;;;;;1.25;1.00;;;19.20;86.90;;;;;;5089441;28;20207;-87
2023/07/15 12:58:34;;;;;;;1.23;0.90;;;19.20;87.40;;;;;;5078367;28;20296;-88
2023/07/15 13:01:05;;;;;;;1.17;0.88;;;19.20;86.80;;;;;;5075846;28;20195;-87
2023/07/15 13:03:39;;;;;;;1.55;1.00;;;19.20;86.90;;;;;;5072708;28;20202;-86
2023/07/15 13:06:13;;;;;;;1.15;1.00;;;19.30;87.20;;;;;;5075501;28;20227;-86
2023/07/15 13:08:46;;;;;;;2.22;1.20;;;19.30;86.60;;;;;;5076044;28;20231;-87
2023/07/15 13:11:18;;;;;;;1.23;1.00;;;19.30;86.90;;;;;;5075772;28;20571;-88
2023/07/15 13:13:49;;;;;;;1.85;1.00;;;19.30;86.10;;;;;;5076925;28;20390;-86